Time;durP1;ratioP1;P1;durP2;ratioP2;P2;SDS_P1;SDS_P2;PMS_P1;PMS_P2;Temp;Humidity;BMP_temperature;BMP_pressure;BME280_temperature;BME280_humidity;BME280_pressure;Samples;Min_cycle;Max_cycle;Signal;HPM_P1;HPM_P2
2023/06/01 00:02:11;;;;;;;12.43;9.07;;;13.50;78.80;;;;;;5071651;28;20055;-69
2023/06/01 00:04:40;;;;;;;13.10;8.98;;;13.40;78.80;;;;;;5076093;28;20031;-68
2023/06/01 00:07:06;;;;;;;12.55;9.63;;;13.40;79.10;;;;;;5072793;28;20093;-69
2023/06/01 00:09:32;;;;;;;11.55;8.45;;;13.30;79.20;;;;;;5073285;28;20074;-68
2023/06/01 00:11:57;;;;;;;12.77;9.20;;;13.30;79.20;;;;;;5073394;28;20033;-69
2023/06/01 00:14:23;;;;;;;13.00;8.38;;;13.10;79.70;;;;;;5072691;28;20085;-69
2023/06/01 00:16:48;;;;;;;11.38;8.88;;;13.10;79.80;;;;;;5072581;28;20013;-69
2023/06/01 00:19:14;;;;;;;12.80;8.82;;;13.10;79.80;;;;;;5069262;28;20641;-69
2023/06/01 00:21:41;;;;;;;12.45;8.18;;;13.00;79.80;;;;;;5073325;28;20447;-69
2023/06/01 00:24:07;;;;;;;11.95;7.53;;;13.00;79.70;;;;;;5071299;28;20356;-69
2023/06/01 00:26:33;;;;;;;11.68;8.18;;;13.00;79.50;;;;;;5075030;28;20287;-69
2023/06/01 00:29:01;;;;;;;13.07;7.93;;;13.00;79.70;;;;;;5072912;28;20173;-69
2023/06/01 00:31:27;;;;;;;11.07;8.10;;;12.90;80.10;;;;;;5073842;28;20048;-69
2023/06/01 00:33:52;;;;;;;8.73;6.70;;;12.80;80.40;;;;;;5073898;28;20483;-70
2023/06/01 00:36:19;;;;;;;11.02;6.72;;;12.80;80.30;;;;;;5078552;28;20024;-69
2023/06/01 00:38:44;;;;;;;9.73;6.30;;;12.90;80.10;;;;;;5071716;28;20031;-70
2023/06/01 00:41:10;;;;;;;8.50;6.80;;;12.90;80.00;;;;;;5072929;28;20025;-69
2023/06/01 00:43:36;;;;;;;8.88;5.85;;;12.90;79.80;;;;;;5075627;28;20028;-70
2023/06/01 00:46:04;;;;;;;7.72;5.93;;;12.90;79.80;;;;;;5076427;28;20032;-69
2023/06/01 00:48:30;;;;;;;7.72;6.20;;;12.90;79.70;;;;;;5073792;28;20031;-70
2023/06/01 00:50:58;;;;;;;9.00;5.55;;;12.90;79.70;;;;;;5071842;28;20402;-69
2023/06/01 00:53:25;;;;;;;8.40;5.35;;;12.90;79.60;;;;;;5071302;28;20050;-70
2023/06/01 00:55:51;;;;;;;7.03;5.13;;;12.90;79.50;;;;;;5072971;28;20090;-70
2023/06/01 00:58:17;;;;;;;9.07;5.45;;;13.00;79.30;;;;;;5076960;28;20024;-70
2023/06/01 01:00:42;;;;;;;7.65;5.57;;;13.00;79.10;;;;;;5074659;28;20036;-70
2023/06/01 01:03:09;;;;;;;7.72;5.53;;;13.10;79.10;;;;;;5075245;28;20042;-70
2023/06/01 01:05:39;;;;;;;10.55;5.72;;;13.00;79.00;;;;;;5076190;28;20038;-70
2023/06/01 01:08:27;;;;;;;7.82;5.65;;;13.00;79.20;;;;;;5069233;28;20368;-70
2023/06/01 01:11:03;;;;;;;9.85;6.13;;;13.00;79.30;;;;;;5073811;28;20070;-69
2023/06/01 01:13:47;;;;;;;9.10;5.70;;;12.90;79.50;;;;;;5074252;28;20016;-70
2023/06/01 01:16:34;;;;;;;9.43;5.75;;;12.90;79.60;;;;;;5069820;28;20021;-70
2023/06/01 01:19:24;;;;;;;8.82;5.40;;;12.90;79.60;;;;;;5070239;28;20021;-71
2023/06/01 01:22:07;;;;;;;9.27;5.40;;;13.00;79.70;;;;;;5068969;28;20020;-70
2023/06/01 01:24:51;;;;;;;11.60;5.95;;;12.90;80.00;;;;;;5072222;28;20028;-70
2023/06/01 01:27:38;;;;;;;9.23;5.28;;;12.90;80.30;;;;;;5076452;28;20128;-69
2023/06/01 01:30:07;;;;;;;10.70;5.88;;;12.90;80.40;;;;;;5069271;28;20101;-69
2023/06/01 01:32:35;;;;;;;10.63;6.25;;;12.80;80.60;;;;;;5074506;28;20021;-70
2023/06/01 01:35:05;;;;;;;10.95;6.75;;;12.70;81.00;;;;;;5074901;28;20027;-70
2023/06/01 01:37:33;;;;;;;9.70;6.10;;;12.80;81.20;;;;;;5077508;28;20016;-70
2023/06/01 01:39:58;;;;;;;10.02;5.57;;;12.80;81.20;;;;;;5072042;28;20066;-70
2023/06/01 01:42:24;;;;;;;11.80;6.45;;;12.70;81.10;;;;;;5078974;28;20028;-68
2023/06/01 01:44:50;;;;;;;10.55;5.63;;;12.70;81.10;;;;;;5067246;28;20028;-69
2023/06/01 01:47:27;;;;;;;7.45;5.50;;;12.70;81.10;;;;;;5070026;28;20036;-69
2023/06/01 01:50:03;;;;;;;10.20;5.97;;;12.80;81.10;;;;;;5071502;28;20107;-69
2023/06/01 01:52:39;;;;;;;11.50;6.65;;;12.70;81.00;;;;;;5071399;28;20043;-70
2023/06/01 01:55:10;;;;;;;9.48;6.00;;;12.70;81.00;;;;;;5068276;28;20020;-69
2023/06/01 01:57:37;;;;;;;10.48;7.50;;;12.70;81.00;;;;;;5075546;28;20024;-70
2023/06/01 02:00:06;;;;;;;10.18;5.95;;;12.60;81.60;;;;;;5074699;28;20027;-70
2023/06/01 02:02:31;;;;;;;9.05;5.60;;;12.60;81.60;;;;;;5074195;28;20441;-70
2023/06/01 02:04:57;;;;;;;8.77;5.68;;;12.60;81.50;;;;;;5074112;28;20036;-69
2023/06/01 02:07:23;;;;;;;9.20;5.90;;;12.60;81.30;;;;;;5072092;28;20040;-69
2023/06/01 02:09:48;;;;;;;9.40;6.00;;;12.60;81.30;;;;;;5073708;28;20024;-69
2023/06/01 02:12:14;;;;;;;10.70;5.65;;;12.60;81.30;;;;;;5071536;28;20402;-69
2023/06/01 02:14:40;;;;;;;7.95;6.25;;;12.60;81.20;;;;;;5073296;28;20037;-69
2023/06/01 02:17:07;;;;;;;11.23;7.20;;;12.60;81.10;;;;;;5074986;28;20020;-69
2023/06/01 02:19:33;;;;;;;8.88;5.78;;;12.60;81.40;;;;;;5073516;28;20040;-69
2023/06/01 02:21:58;;;;;;;9.25;5.75;;;12.60;81.50;;;;;;5077684;28;20024;-68
2023/06/01 02:24:24;;;;;;;7.57;5.03;;;12.70;81.30;;;;;;5070767;28;20109;-68
2023/06/01 02:26:53;;;;;;;9.50;5.53;;;12.70;81.00;;;;;;5072606;28;20446;-68
2023/06/01 02:29:23;;;;;;;10.05;6.68;;;12.80;80.80;;;;;;5073916;28;20071;-69
2023/06/01 02:31:50;;;;;;;8.77;6.15;;;12.80;80.60;;;;;;5071900;28;20441;-69
2023/06/01 02:34:17;;;;;;;7.03;4.97;;;12.80;80.50;;;;;;5070446;28;20498;-68
2023/06/01 02:36:43;;;;;;;10.65;5.75;;;12.80;80.50;;;;;;5075177;28;20016;-68
2023/06/01 02:39:09;;;;;;;9.18;6.18;;;12.70;80.50;;;;;;5072503;28;20040;-69
2023/06/01 02:41:34;;;;;;;9.18;5.78;;;12.70;80.90;;;;;;5069165;28;20021;-69
2023/06/01 02:44:00;;;;;;;8.40;5.22;;;12.70;81.00;;;;;;5070761;28;20111;-69
2023/06/01 02:46:26;;;;;;;9.23;6.18;;;12.70;81.00;;;;;;5068004;28;20497;-68
2023/06/01 02:48:52;;;;;;;10.50;6.88;;;12.70;81.10;;;;;;5067240;28;20028;-68
2023/06/01 02:51:18;;;;;;;8.23;5.90;;;12.70;81.10;;;;;;5067954;28;20032;-69
2023/06/01 02:53:46;;;;;;;8.80;5.75;;;12.60;81.10;;;;;;5069343;28;20407;-68
2023/06/01 02:56:11;;;;;;;9.30;6.07;;;12.70;81.00;;;;;;5066882;28;20368;-68
2023/06/01 02:58:37;;;;;;;9.23;5.60;;;12.70;81.00;;;;;;5067560;28;20143;-68
2023/06/01 03:01:03;;;;;;;10.48;5.95;;;12.70;80.90;;;;;;5069187;28;20390;-68
2023/06/01 03:03:28;;;;;;;8.77;5.65;;;12.70;80.90;;;;;;5067427;28;20039;-68
2023/06/01 03:05:55;;;;;;;8.43;5.60;;;12.70;80.90;;;;;;5072822;28;20024;-68
2023/06/01 03:08:21;;;;;;;7.75;5.95;;;12.70;80.80;;;;;;5067924;28;20024;-68
2023/06/01 03:10:46;;;;;;;9.45;5.15;;;12.70;81.00;;;;;;5065944;28;20032;-69
2023/06/01 03:13:12;;;;;;;8.10;5.15;;;12.70;81.00;;;;;;5070135;28;20095;-69
2023/06/01 03:15:38;;;;;;;7.97;5.22;;;12.60;81.00;;;;;;5070283;28;20048;-68
2023/06/01 03:18:05;;;;;;;8.25;5.70;;;12.70;80.90;;;;;;5071044;28;20450;-69
2023/06/01 03:20:31;;;;;;;7.95;5.75;;;12.70;80.70;;;;;;5072446;28;20017;-69
2023/06/01 03:22:56;;;;;;;8.93;5.38;;;12.70;80.60;;;;;;5073017;28;20031;-69
2023/06/01 03:25:22;;;;;;;11.00;5.65;;;12.70;80.40;;;;;;5076383;28;20020;-69
2023/06/01 03:27:48;;;;;;;9.50;5.15;;;12.70;80.30;;;;;;5073047;28;20494;-68
2023/06/01 03:30:14;;;;;;;9.10;5.53;;;12.80;80.20;;;;;;5072096;28;20437;-68
2023/06/01 03:32:40;;;;;;;9.52;5.40;;;12.80;80.00;;;;;;5070226;28;20532;-68
2023/06/01 03:35:08;;;;;;;8.98;5.88;;;12.80;79.90;;;;;;5072424;28;20024;-68
2023/06/01 03:37:38;;;;;;;10.75;5.85;;;12.80;80.00;;;;;;5070864;28;20477;-68
2023/06/01 03:40:11;;;;;;;10.45;5.80;;;12.80;79.90;;;;;;5074462;28;20039;-68
2023/06/01 03:42:40;;;;;;;8.88;5.60;;;12.80;79.90;;;;;;5071151;28;20424;-69
2023/06/01 03:45:07;;;;;;;8.13;4.90;;;12.80;79.90;;;;;;5069474;28;20024;-69
2023/06/01 03:47:33;;;;;;;8.82;5.43;;;12.80;79.80;;;;;;5072451;28;20024;-68
2023/06/01 03:50:00;;;;;;;9.18;5.80;;;12.70;79.90;;;;;;5071904;28;20028;-69
2023/06/01 03:52:26;;;;;;;9.88;5.82;;;12.70;80.10;;;;;;5072521;28;20445;-68
2023/06/01 03:54:52;;;;;;;9.82;6.20;;;12.70;80.10;;;;;;5073181;28;20097;-68
2023/06/01 03:57:17;;;;;;;9.27;5.75;;;12.60;80.30;;;;;;5072032;28;20063;-69
2023/06/01 03:59:43;;;;;;;8.18;4.95;;;12.60;80.40;;;;;;5070846;28;20556;-69
2023/06/01 04:02:09;;;;;;;11.07;5.88;;;12.60;80.40;;;;;;5071853;28;20023;-68
2023/06/01 04:04:35;;;;;;;10.20;6.20;;;12.50;80.30;;;;;;5071854;28;20048;-68
2023/06/01 04:07:02;;;;;;;8.95;5.22;;;12.50;80.60;;;;;;5072937;28;20490;-69
2023/06/01 04:09:28;;;;;;;8.38;4.80;;;12.40;80.70;;;;;;5067499;28;20131;-68
2023/06/01 04:11:55;;;;;;;9.52;5.47;;;12.50;80.70;;;;;;5070675;28;20536;-68
2023/06/01 04:14:20;;;;;;;8.88;5.72;;;12.50;80.60;;;;;;5072486;28;20066;-68
2023/06/01 04:16:46;;;;;;;8.45;5.18;;;12.60;80.70;;;;;;5072052;28;20021;-68
2023/06/01 04:19:12;;;;;;;10.38;5.22;;;12.60;80.50;;;;;;5072662;28;20033;-70
2023/06/01 04:21:37;;;;;;;8.55;4.68;;;12.60;80.40;;;;;;5069127;28;20028;-70
2023/06/01 04:24:03;;;;;;;7.88;5.45;;;12.60;80.30;;;;;;5069970;28;20025;-69
2023/06/01 04:26:31;;;;;;;8.85;5.70;;;12.60;80.40;;;;;;5073809;28;20102;-70
2023/06/01 04:28:58;;;;;;;9.02;5.13;;;12.60;80.30;;;;;;5071949;28;20021;-70
2023/06/01 04:31:24;;;;;;;9.20;5.35;;;12.60;80.30;;;;;;5069932;28;20032;-70
2023/06/01 04:33:52;;;;;;;9.68;5.93;;;12.60;80.30;;;;;;5071155;28;20021;-69
2023/06/01 04:36:22;;;;;;;10.38;5.65;;;12.50;80.30;;;;;;5070595;28;20383;-69
2023/06/01 04:38:53;;;;;;;10.00;5.85;;;12.40;80.30;;;;;;5071391;28;20102;-69
2023/06/01 04:41:21;;;;;;;10.65;5.97;;;12.50;80.30;;;;;;5072384;28;20035;-70
2023/06/01 04:43:51;;;;;;;12.27;6.53;;;12.50;80.30;;;;;;5073644;28;20020;-69
2023/06/01 04:46:19;;;;;;;10.13;5.80;;;12.40;80.80;;;;;;5071684;28;20513;-71
2023/06/01 04:48:46;;;;;;;9.95;6.00;;;12.40;80.80;;;;;;5071486;28;20086;-71
2023/06/01 04:51:19;;;;;;;9.50;5.38;;;12.40;80.80;;;;;;5069611;28;20016;-71
2023/06/01 04:53:49;;;;;;;10.02;5.50;;;12.40;80.70;;;;;;5071386;28;20034;-72
2023/06/01 04:56:19;;;;;;;8.05;5.35;;;12.50;80.50;;;;;;5071070;28;20095;-70
2023/06/01 04:58:47;;;;;;;9.70;6.00;;;12.50;80.50;;;;;;5071265;28;20075;-70
2023/06/01 05:01:15;;;;;;;9.60;5.65;;;12.60;80.30;;;;;;5071568;28;20108;-71
2023/06/01 05:03:41;;;;;;;10.18;5.72;;;12.60;80.10;;;;;;5068576;28;20024;-70
2023/06/01 05:06:07;;;;;;;11.23;6.05;;;12.60;79.80;;;;;;5070743;28;20031;-70
2023/06/01 05:08:33;;;;;;;9.18;5.75;;;12.60;79.60;;;;;;5071669;28;20255;-70
2023/06/01 05:10:59;;;;;;;10.65;5.97;;;12.70;79.50;;;;;;5069126;28;20069;-70
2023/06/01 05:13:24;;;;;;;7.30;5.03;;;12.70;79.50;;;;;;5070295;28;20025;-69
2023/06/01 05:15:50;;;;;;;8.25;5.45;;;12.80;79.30;;;;;;5071356;28;20020;-70
2023/06/01 05:18:15;;;;;;;11.00;6.00;;;12.80;79.00;;;;;;5071574;28;20419;-70
2023/06/01 05:20:41;;;;;;;10.73;5.40;;;12.90;78.90;;;;;;5071968;28;20099;-70
2023/06/01 05:23:07;;;;;;;9.07;5.45;;;13.00;78.70;;;;;;5071277;28;20039;-71
2023/06/01 05:25:32;;;;;;;10.27;5.53;;;13.00;78.50;;;;;;5069953;28;20048;-71
2023/06/01 05:27:58;;;;;;;8.90;5.65;;;13.00;78.40;;;;;;5069645;28;20115;-71
2023/06/01 05:30:23;;;;;;;11.85;5.93;;;13.10;78.30;;;;;;5072044;28;20054;-71
2023/06/01 05:32:49;;;;;;;8.88;5.18;;;13.10;78.20;;;;;;5069341;28;20062;-72
2023/06/01 05:35:15;;;;;;;8.32;5.40;;;13.20;78.10;;;;;;5071068;28;20088;-71
2023/06/01 05:37:40;;;;;;;8.63;5.40;;;13.30;77.80;;;;;;5070549;28;20067;-71
2023/06/01 05:40:08;;;;;;;8.20;5.70;;;13.30;77.60;;;;;;5069208;28;20062;-71
2023/06/01 05:42:34;;;;;;;11.40;6.03;;;13.20;77.70;;;;;;5072427;28;20031;-71
2023/06/01 05:45:00;;;;;;;11.52;5.68;;;13.20;77.70;;;;;;5068533;28;20127;-71
2023/06/01 05:47:25;;;;;;;9.82;6.03;;;13.20;77.50;;;;;;5068128;28;20024;-70
2023/06/01 05:49:51;;;;;;;9.32;5.78;;;13.30;77.40;;;;;;5067601;28;20379;-69
2023/06/01 05:52:16;;;;;;;9.95;5.80;;;13.20;77.10;;;;;;5069549;28;20467;-70
2023/06/01 05:54:42;;;;;;;11.65;5.97;;;13.20;77.00;;;;;;5069499;28;20028;-71
2023/06/01 05:57:08;;;;;;;8.57;5.05;;;13.20;77.20;;;;;;5071763;28;20074;-69
2023/06/01 05:59:33;;;;;;;9.55;6.32;;;13.30;77.00;;;;;;5071237;28;20047;-70
2023/06/01 06:01:59;;;;;;;10.15;5.75;;;13.40;77.00;;;;;;5070342;28;20032;-69
2023/06/01 06:04:25;;;;;;;9.07;5.30;;;13.40;76.80;;;;;;5070309;28;20153;-69
2023/06/01 06:06:50;;;;;;;9.48;5.28;;;13.50;76.60;;;;;;5071555;28;20020;-70
2023/06/01 06:09:16;;;;;;;8.68;5.05;;;13.60;76.30;;;;;;5069981;28;20032;-70
2023/06/01 06:11:43;;;;;;;9.48;5.43;;;13.60;76.10;;;;;;5069380;28;20048;-69
2023/06/01 06:14:11;;;;;;;11.80;6.00;;;13.60;75.90;;;;;;5067417;28;20047;-70
2023/06/01 06:16:37;;;;;;;11.98;5.88;;;13.70;75.90;;;;;;5065709;28;20024;-69
2023/06/01 06:19:02;;;;;;;9.75;5.57;;;13.70;75.80;;;;;;5075056;28;20024;-69
2023/06/01 06:21:28;;;;;;;12.40;5.68;;;13.80;75.50;;;;;;5071407;28;20024;-69
2023/06/01 06:23:58;;;;;;;8.05;5.60;;;13.80;75.30;;;;;;5068475;28;20086;-69
2023/06/01 06:26:26;;;;;;;11.15;5.90;;;13.90;75.30;;;;;;5069751;28;20498;-70
2023/06/01 06:28:51;;;;;;;11.32;5.80;;;13.90;75.10;;;;;;5068263;28;20410;-69
2023/06/01 06:31:17;;;;;;;11.48;5.75;;;13.90;75.10;;;;;;5067173;28;20021;-69
2023/06/01 06:33:42;;;;;;;10.48;6.40;;;13.90;75.10;;;;;;5068498;28;20082;-69
2023/06/01 06:36:08;;;;;;;10.90;6.00;;;13.80;75.20;;;;;;5067718;28;20036;-69
2023/06/01 06:38:33;;;;;;;10.50;5.90;;;13.90;75.00;;;;;;5068664;28;20028;-69
2023/06/01 06:40:59;;;;;;;9.75;5.53;;;14.10;74.60;;;;;;5069304;28;20156;-69
2023/06/01 06:43:25;;;;;;;12.40;6.30;;;14.30;74.30;;;;;;5068699;28;20103;-69
2023/06/01 06:45:51;;;;;;;10.88;5.32;;;14.60;73.70;;;;;;5069720;28;20108;-69
2023/06/01 06:48:16;;;;;;;9.80;5.50;;;15.00;73.20;;;;;;5069911;28;20086;-69
2023/06/01 06:50:44;;;;;;;10.05;5.90;;;15.40;72.10;;;;;;5072153;28;20078;-69
2023/06/01 06:53:10;;;;;;;8.45;5.13;;;15.40;70.80;;;;;;5071881;28;20021;-69
2023/06/01 06:55:36;;;;;;;7.93;5.05;;;15.80;70.40;;;;;;5073918;28;20073;-69
2023/06/01 06:58:01;;;;;;;10.80;5.22;;;15.90;69.50;;;;;;5070773;28;20024;-69
2023/06/01 07:00:27;;;;;;;8.73;4.90;;;16.20;68.80;;;;;;5069252;28;20118;-69
2023/06/01 07:02:53;;;;;;;10.10;5.78;;;16.30;67.90;;;;;;5074009;28;20095;-69
2023/06/01 07:05:19;;;;;;;8.88;4.60;;;16.30;67.40;;;;;;5074920;28;20025;-69
2023/06/01 07:07:44;;;;;;;8.10;5.18;;;16.40;67.30;;;;;;5069648;28;20035;-69
2023/06/01 07:10:10;;;;;;;8.68;5.15;;;16.50;66.90;;;;;;5075521;28;20047;-69
2023/06/01 07:12:36;;;;;;;7.85;4.85;;;16.60;66.50;;;;;;5076160;28;20052;-69
2023/06/01 07:15:02;;;;;;;7.53;4.38;;;16.80;66.30;;;;;;5076464;28;20020;-70
2023/06/01 07:17:28;;;;;;;8.32;5.05;;;17.20;65.70;;;;;;5073932;28;20379;-70
2023/06/01 07:19:53;;;;;;;8.95;4.88;;;17.20;64.90;;;;;;5072047;28;20078;-70
2023/06/01 07:22:21;;;;;;;7.70;4.53;;;17.20;64.80;;;;;;5074943;28;20020;-69
2023/06/01 07:24:47;;;;;;;10.85;5.28;;;17.20;64.70;;;;;;5073564;28;20025;-70
2023/06/01 07:27:13;;;;;;;9.07;4.75;;;17.20;64.10;;;;;;5072154;28;20021;-69
2023/06/01 07:29:39;;;;;;;10.70;4.80;;;17.10;64.20;;;;;;5069411;28;20043;-69
2023/06/01 07:32:06;;;;;;;8.50;5.10;;;17.10;64.30;;;;;;5074829;28;20202;-69
2023/06/01 07:34:33;;;;;;;8.95;4.40;;;17.10;64.10;;;;;;5075236;28;20019;-70
2023/06/01 07:37:01;;;;;;;8.57;4.53;;;17.00;64.30;;;;;;5071552;28;20387;-70
2023/06/01 07:39:26;;;;;;;9.65;4.80;;;17.00;64.10;;;;;;5072468;28;20115;-70
2023/06/01 07:41:53;;;;;;;12.15;5.28;;;16.90;64.00;;;;;;5072663;28;20119;-69
2023/06/01 07:44:20;;;;;;;8.82;4.80;;;16.90;63.90;;;;;;5073000;28;20040;-69
2023/06/01 07:46:46;;;;;;;9.05;5.30;;;17.00;64.50;;;;;;5072591;28;20077;-69
2023/06/01 07:49:13;;;;;;;9.90;4.93;;;17.00;63.70;;;;;;5069882;28;20082;-70
2023/06/01 07:51:40;;;;;;;7.95;4.95;;;17.00;63.60;;;;;;5071955;28;20020;-70
2023/06/01 07:54:07;;;;;;;9.70;5.18;;;17.00;63.50;;;;;;5072318;28;20021;-70
2023/06/01 07:56:34;;;;;;;10.68;5.88;;;16.90;63.50;;;;;;5070970;28;20533;-70
2023/06/01 07:59:00;;;;;;;7.50;5.07;;;16.80;63.50;;;;;;5072337;28;20497;-71
2023/06/01 08:01:25;;;;;;;8.98;5.15;;;16.80;63.60;;;;;;5079363;28;20028;-71
2023/06/01 08:03:52;;;;;;;10.27;5.22;;;16.80;63.80;;;;;;5083447;28;20020;-71
2023/06/01 08:06:17;;;;;;;9.07;5.53;;;17.00;63.80;;;;;;5072198;28;20445;-70
2023/06/01 08:08:43;;;;;;;7.20;4.45;;;17.00;63.60;;;;;;5069232;28;20025;-70
2023/06/01 08:11:09;;;;;;;9.32;5.63;;;17.20;63.80;;;;;;5068118;28;20554;-70
2023/06/01 08:13:36;;;;;;;9.38;5.28;;;17.30;63.30;;;;;;5075819;28;20467;-70
2023/06/01 08:16:02;;;;;;;9.23;4.65;;;17.20;62.60;;;;;;5073177;28;20032;-70
2023/06/01 08:18:28;;;;;;;7.60;4.30;;;17.10;62.50;;;;;;5071849;28;20019;-70
2023/06/01 08:20:55;;;;;;;8.93;5.32;;;17.10;62.70;;;;;;5072080;28;20082;-70
2023/06/01 08:23:22;;;;;;;7.20;4.80;;;17.20;62.70;;;;;;5072615;28;20031;-71
2023/06/01 08:25:50;;;;;;;7.95;5.18;;;17.30;62.70;;;;;;5076236;28;20024;-70
2023/06/01 08:28:16;;;;;;;9.40;5.38;;;17.40;62.20;;;;;;5073256;28;20024;-70
2023/06/01 08:30:41;;;;;;;10.15;5.28;;;17.40;62.10;;;;;;5072993;28;20021;-70
2023/06/01 08:33:07;;;;;;;8.48;4.82;;;17.40;62.00;;;;;;5074694;28;20502;-70
2023/06/01 08:35:35;;;;;;;6.55;4.45;;;17.50;62.00;;;;;;5069486;28;20300;-70
2023/06/01 08:38:02;;;;;;;8.27;4.97;;;17.70;61.90;;;;;;5077923;28;20020;-70
2023/06/01 08:40:31;;;;;;;7.00;4.90;;;17.80;61.10;;;;;;5076168;28;20017;-70
2023/06/01 08:42:57;;;;;;;8.05;4.80;;;17.90;60.90;;;;;;5069882;28;20338;-70
2023/06/01 08:45:23;;;;;;;7.72;4.50;;;17.90;60.80;;;;;;5069216;28;20024;-70
2023/06/01 08:47:52;;;;;;;9.00;5.57;;;18.00;61.00;;;;;;5066913;28;20040;-71
2023/06/01 08:50:18;;;;;;;7.25;4.70;;;18.10;60.30;;;;;;5069459;28;20394;-70
2023/06/01 08:52:46;;;;;;;10.60;5.57;;;18.10;60.10;;;;;;5069004;28;20024;-71
2023/06/01 08:55:13;;;;;;;8.25;4.97;;;18.00;59.70;;;;;;5069979;28;20024;-70
2023/06/01 08:57:41;;;;;;;6.47;4.65;;;18.10;59.70;;;;;;5071775;28;20585;-70
2023/06/01 09:00:08;;;;;;;6.28;4.50;;;18.20;59.70;;;;;;5066671;28;20035;-70
2023/06/01 09:02:34;;;;;;;8.27;4.30;;;18.30;59.30;;;;;;5068110;28;20029;-70
2023/06/01 09:05:00;;;;;;;9.02;4.57;;;18.40;59.10;;;;;;5071072;28;20033;-70
2023/06/01 09:07:26;;;;;;;7.68;4.60;;;18.50;59.00;;;;;;5071243;28;20346;-70
2023/06/01 09:09:51;;;;;;;8.38;4.90;;;18.60;59.00;;;;;;5069438;28;20032;-70
2023/06/01 09:12:25;;;;;;;7.72;4.50;;;18.60;58.20;;;;;;5068961;28;20077;-70
2023/06/01 09:15:11;;;;;;;8.48;4.50;;;18.50;58.60;;;;;;5066023;28;20769;-70
2023/06/01 09:17:38;;;;;;;6.70;4.13;;;18.60;58.80;;;;;;5069031;28;20584;-70
2023/06/01 09:20:05;;;;;;;6.55;3.80;;;18.70;58.50;;;;;;5069074;28;20036;-70
2023/06/01 09:22:45;;;;;;;6.57;3.60;;;18.70;58.60;;;;;;5068705;28;20036;-70
2023/06/01 09:25:13;;;;;;;6.50;3.58;;;18.90;58.50;;;;;;5069307;28;20035;-70
2023/06/01 09:27:50;;;;;;;5.22;3.30;;;19.10;58.20;;;;;;5068281;28;20032;-70
2023/06/01 09:30:18;;;;;;;7.20;4.15;;;19.30;57.90;;;;;;5072255;28;20060;-70
2023/06/01 09:32:47;;;;;;;6.72;4.05;;;19.20;57.10;;;;;;5074535;28;20051;-70
2023/06/01 09:35:13;;;;;;;8.65;3.97;;;19.30;56.90;;;;;;5069539;28;20495;-70
2023/06/01 09:37:54;;;;;;;7.15;3.70;;;19.20;56.60;;;;;;5070857;28;20082;-70
2023/06/01 09:40:20;;;;;;;5.40;3.28;;;19.30;56.80;;;;;;5073631;28;20036;-70
2023/06/01 09:42:49;;;;;;;8.18;3.40;;;19.40;56.80;;;;;;5073630;28;20486;-70
2023/06/01 09:45:20;;;;;;;6.15;3.42;;;19.40;56.50;;;;;;5072409;28;20031;-70
2023/06/01 09:47:47;;;;;;;6.00;3.80;;;19.40;56.50;;;;;;5073107;28;20581;-70
2023/06/01 09:50:33;;;;;;;5.80;3.28;;;19.50;56.50;;;;;;5073374;28;20024;-70
2023/06/01 09:52:59;;;;;;;9.05;4.38;;;19.70;56.40;;;;;;5067140;28;20561;-70
2023/06/01 09:55:24;;;;;;;4.95;3.10;;;19.80;55.80;;;;;;5075909;28;20016;-70
2023/06/01 09:57:50;;;;;;;6.88;3.95;;;19.80;56.20;;;;;;5069407;28;20035;-70
2023/06/01 10:00:26;;;;;;;8.65;3.90;;;19.90;55.40;;;;;;5070268;28;20025;-70
2023/06/01 10:02:53;;;;;;;6.10;3.78;;;19.90;55.20;;;;;;5072335;28;20060;-70
2023/06/01 10:05:20;;;;;;;8.15;3.90;;;20.00;55.00;;;;;;5069196;28;20519;-70
2023/06/01 10:07:47;;;;;;;6.35;4.00;;;20.10;54.70;;;;;;5077451;28;20035;-70
2023/06/01 10:10:15;;;;;;;9.07;4.10;;;20.10;54.70;;;;;;5078445;28;20032;-70
2023/06/01 10:12:40;;;;;;;7.95;3.85;;;20.10;54.20;;;;;;5071842;28;20055;-70
2023/06/01 10:15:07;;;;;;;7.15;3.67;;;20.10;54.00;;;;;;5070442;28;20048;-70
2023/06/01 10:17:33;;;;;;;6.57;3.60;;;20.10;54.40;;;;;;5074016;28;20069;-70
2023/06/01 10:20:01;;;;;;;6.15;3.80;;;20.20;54.40;;;;;;5070187;28;20033;-70
2023/06/01 10:22:28;;;;;;;7.68;3.85;;;20.20;53.90;;;;;;5072671;28;20032;-70
2023/06/01 10:25:00;;;;;;;6.50;3.50;;;20.20;54.20;;;;;;5075345;28;20020;-71
2023/06/01 10:27:40;;;;;;;5.30;3.47;;;20.20;54.20;;;;;;5069947;28;20103;-70
2023/06/01 10:30:09;;;;;;;5.90;3.53;;;20.40;54.30;;;;;;5067755;28;20562;-70
2023/06/01 10:32:45;;;;;;;7.43;4.05;;;20.50;54.00;;;;;;5071068;28;20021;-70
2023/06/01 10:35:33;;;;;;;6.35;3.83;;;20.50;53.90;;;;;;5069997;28;20044;-70
2023/06/01 10:38:12;;;;;;;6.70;3.67;;;20.50;53.90;;;;;;5063714;28;20112;-70
2023/06/01 10:40:45;;;;;;;6.47;3.60;;;20.40;53.70;;;;;;5065674;28;20043;-69
2023/06/01 10:43:35;;;;;;;5.85;3.28;;;20.40;54.10;;;;;;5065740;28;20016;-69
2023/06/01 10:46:01;;;;;;;7.55;3.63;;;20.60;54.20;;;;;;5064598;28;20510;-70
2023/06/01 10:48:55;;;;;;;6.40;3.30;;;20.80;53.80;;;;;;5070749;28;20027;-69
2023/06/01 10:51:24;;;;;;;8.40;4.13;;;20.90;53.40;;;;;;5071313;28;20029;-70
2023/06/01 10:53:50;;;;;;;7.88;4.10;;;21.00;53.10;;;;;;5062649;28;20029;-70
2023/06/01 10:56:27;;;;;;;6.90;3.70;;;21.00;53.10;;;;;;5068396;28;20019;-70
2023/06/01 10:59:07;;;;;;;6.15;3.38;;;21.10;52.90;;;;;;5064549;28;20465;-69
2023/06/01 11:01:51;;;;;;;7.28;3.70;;;21.20;52.80;;;;;;5064722;28;20104;-69
2023/06/01 11:04:34;;;;;;;5.50;3.40;;;21.30;52.40;;;;;;5070648;28;20028;-69
2023/06/01 11:07:36;;;;;;;6.18;3.75;;;21.30;51.10;;;;;;5069942;28;20020;-70
2023/06/01 11:10:02;;;;;;;6.82;4.00;;;21.30;51.80;;;;;;5068263;28;20029;-70
2023/06/01 11:12:47;;;;;;;6.22;3.60;;;21.30;51.30;;;;;;5057730;28;20028;-70
2023/06/01 11:15:14;;;;;;;3.97;2.85;;;21.40;50.90;;;;;;5079875;28;20457;-70
2023/06/01 11:17:41;;;;;;;5.25;2.95;;;21.50;51.30;;;;;;5079280;28;20052;-70
2023/06/01 11:20:10;;;;;;;5.93;3.67;;;21.70;51.20;;;;;;5073868;28;20390;-70
2023/06/01 11:22:37;;;;;;;4.45;3.10;;;21.90;50.70;;;;;;5081598;28;20032;-70
2023/06/01 11:25:06;;;;;;;5.72;3.20;;;21.80;50.20;;;;;;5079928;28;20035;-70
2023/06/01 11:27:32;;;;;;;5.22;3.30;;;22.00;50.40;;;;;;5079814;28;20036;-70
2023/06/01 11:29:57;;;;;;;5.00;3.20;;;22.00;50.00;;;;;;5072783;28;20108;-70
2023/06/01 11:32:26;;;;;;;4.88;2.97;;;22.00;50.10;;;;;;5078293;28;20039;-70
2023/06/01 11:34:53;;;;;;;4.82;3.08;;;22.10;50.10;;;;;;5083011;28;20073;-70
2023/06/01 11:37:20;;;;;;;4.63;3.10;;;22.20;50.00;;;;;;5071221;28;20027;-70
2023/06/01 11:39:47;;;;;;;4.65;3.13;;;22.10;49.50;;;;;;5067685;28;20518;-70
2023/06/01 11:42:17;;;;;;;9.20;3.88;;;22.20;49.70;;;;;;5075451;28;20024;-69
2023/06/01 11:44:45;;;;;;;6.65;3.28;;;22.40;49.60;;;;;;5075199;28;20544;-69
2023/06/01 11:47:12;;;;;;;6.25;3.28;;;22.50;49.20;;;;;;5084797;28;20394;-69
2023/06/01 11:49:43;;;;;;;5.32;3.20;;;22.70;48.90;;;;;;5080299;28;20107;-70
2023/06/01 11:52:09;;;;;;;;;;;22.80;48.50;;;;;;5083420;28;20027;-69
2023/06/01 11:54:36;;;;;;;7.78;3.47;;;22.70;48.20;;;;;;5109589;27;19957;-70
2023/06/01 11:57:03;;;;;;;5.72;3.25;;;22.80;48.30;;;;;;5085497;28;20043;-70
2023/06/01 11:59:39;;;;;;;7.63;3.53;;;22.90;48.30;;;;;;5067183;28;20462;-70
2023/06/01 12:02:31;;;;;;;4.57;3.13;;;23.00;48.00;;;;;;5072875;28;20024;-69
2023/06/01 12:05:08;;;;;;;;;;;23.10;47.90;;;;;;5084479;28;20503;-70
2023/06/01 12:07:47;;;;;;;7.75;3.33;;;23.30;48.10;;;;;;5078822;28;19912;-70
2023/06/01 12:10:16;;;;;;;6.82;3.60;;;23.60;47.60;;;;;;5069143;28;20451;-70
2023/06/01 12:12:45;;;;;;;6.13;3.33;;;23.80;47.20;;;;;;5069861;28;20032;-70
2023/06/01 12:15:15;;;;;;;6.30;3.75;;;23.70;46.50;;;;;;5079225;28;20028;-70
2023/06/01 12:17:55;;;;;;;6.80;3.63;;;23.80;46.60;;;;;;5070674;28;20021;-70
2023/06/01 12:20:31;;;;;;;5.10;3.17;;;23.70;46.20;;;;;;5088591;28;20035;-70
2023/06/01 12:22:58;;;;;;;5.78;3.45;;;23.90;46.10;;;;;;5091418;28;20020;-69
2023/06/01 12:25:24;;;;;;;5.50;3.13;;;23.90;45.20;;;;;;5080835;28;20027;-70
2023/06/01 12:28:04;;;;;;;5.53;2.95;;;23.80;45.00;;;;;;5072313;28;20033;-70
2023/06/01 12:30:30;;;;;;;5.45;2.80;;;23.80;45.00;;;;;;5074798;28;20032;-69
2023/06/01 12:32:57;;;;;;;5.30;3.13;;;24.00;45.10;;;;;;5071394;28;20016;-70
2023/06/01 12:35:23;;;;;;;6.03;2.65;;;23.90;44.00;;;;;;5066675;28;20020;-70
2023/06/01 12:38:07;;;;;;;3.80;2.50;;;24.00;44.30;;;;;;5065169;28;20475;-70
2023/06/01 12:40:36;;;;;;;5.13;3.08;;;24.10;44.20;;;;;;5073281;28;20417;-70
2023/06/01 12:43:05;;;;;;;5.00;2.90;;;24.10;44.20;;;;;;5078950;28;20081;-70
2023/06/01 12:45:37;;;;;;;5.80;2.75;;;24.20;44.50;;;;;;5076143;28;20040;-70
2023/06/01 12:48:03;;;;;;;4.45;2.85;;;24.20;44.50;;;;;;5072653;28;20109;-70
2023/06/01 12:50:29;;;;;;;3.45;2.58;;;24.10;44.50;;;;;;5069895;28;20063;-70
2023/06/01 12:52:55;;;;;;;4.95;2.63;;;24.00;44.80;;;;;;5067362;28;20110;-70